Flight Track Log - Related Links

Times and Time Zones

All times are in EDT time to prevent confusion due to time zone crossing. See the TCF3494 flight status page for this flight to view local times or setup timezone preferences in your user account.

Time Position Orientation Groundspeed Altitude Reporting Facility
EDT Latitude Longitude Course Direction KTS MPH feet Rate Location/Type
Wed 08:13:04 PM 41.9500 -87.9000 90° East 162 186 1,500  Level Chicago TRACON
Wed 08:14:04 PM 41.9167 -87.8667 143° Southeast 178 205 3,100 1,592 Climbing Chicago TRACON
Wed 08:14:42 PM 41.9019 -87.8344 122° Southeast 190 219 4,100 1,140 Climbing Chicago Center
Wed 08:15:44 PM 41.8958 -87.7378 95° East 237 273 5,000 484 Climbing Chicago Center
Wed 08:16:46 PM 41.8942 -87.6369 91° East 257 296 5,100 1,306 Climbing Chicago Center
Wed 08:17:48 PM 41.9044 -87.5347 82° East 274 315 7,700 2,688 Climbing Chicago Center
Wed 08:18:00 PM 41.9333 -86.9669 90° East  Level FlightAware Approximate
Wed 08:18:51 PM 41.9164 -87.4072 83° East 286 329 10,700  Level Chicago Center
Wed 08:19:53 PM 41.9261 -87.2867 84° East 319 367 13,000 2,129 Climbing Chicago Center
Wed 08:20:55 PM 41.9372 -87.1633 83° East 332 382 15,100 2,081 Climbing Chicago Center
Wed 08:21:57 PM 41.9450 -87.0325 85° East 350 403 17,300 1,935 Climbing Chicago Center
Wed 08:22:59 PM 41.9475 -86.8986 89° East 358 412 19,100 1,839 Climbing Chicago Center
Wed 08:24:01 PM 41.9492 -86.7336 89° East 370 426 21,100 1,742 Climbing Chicago Center
Wed 08:25:03 PM 41.9511 -86.6014 89° East 383 441 22,700 1,452 Climbing Chicago Center
Wed 08:26:05 PM 41.9531 -86.4514 89° East 399 459 24,100 919 Climbing Chicago Center
Wed 08:27:07 PM 41.9544 -86.2958 89° East 417 480 24,600 677 Climbing Chicago Center
Wed 08:28:09 PM 41.9436 -86.0919 94° East 455 524 25,500 919 Climbing Chicago Center
Wed 08:29:11 PM 41.9275 -85.9200 97° East 465 535 26,500 968 Climbing Chicago Center
Wed 08:30:13 PM 41.9111 -85.7431 97° East 473 544 27,500 1,016 Climbing Chicago Center
Wed 08:31:15 PM 41.8944 -85.5603 97° East 488 562 28,600 720 Climbing Chicago Center
Wed 08:32:18 PM 41.8756 -85.3736 98° East 496 571 29,000 192 Climbing Chicago Center
Wed 08:33:20 PM 41.8569 -85.1822 97° East 508 585 29,000  Level Chicago Center
Wed 08:34:22 PM 41.8381 -84.9942 98° East 505 581 29,000  Level Chicago Center
Wed 08:35:24 PM 41.8186 -84.8042 98° East 509 586 29,000  Level Chicago Center
Wed 08:37:09 PM 41.7839 -84.4625 98° East 503 579 29,000  Level Cleveland Center
Wed 08:38:09 PM 41.7739 -84.2558 94° East 508 585 29,000  Level Cleveland Center
Wed 08:39:09 PM 41.7736 -84.0608 90° East 508 585 29,000  Level Cleveland Center
Wed 08:40:09 PM 41.7711 -83.8686 91° East 513 590 29,000  Level Cleveland Center
Wed 08:41:09 PM 41.7703 -83.6764 90° East 518 596 29,000  Level Cleveland Center
Wed 08:42:09 PM 41.7628 -83.4867 93° East 518 596 29,000  Level Cleveland Center
Wed 08:43:09 PM 41.7442 -83.3050 98° East 507 583 29,000  Level Cleveland Center
Wed 08:44:09 PM 41.7256 -83.1150 97° East 507 583 29,000  Level Cleveland Center
Wed 08:45:09 PM 41.7067 -82.9306 98° East 507 583 29,000  Level Cleveland Center
Wed 08:46:09 PM 41.6894 -82.7436 97° East 507 583 29,000  Level Cleveland Center
Wed 08:47:09 PM 41.6694 -82.5733 99° East 507 583 29,000  Level Cleveland Center
Wed 08:48:09 PM 41.6517 -82.3922 97° East 502 578 29,000  Level Cleveland Center
Wed 08:49:09 PM 41.6319 -82.1889 97° East 502 578 29,000  Level Cleveland Center
Wed 08:50:09 PM 41.6114 -82.0078 99° East 502 578 29,000  Level Cleveland Center
Wed 08:51:09 PM 41.5925 -81.8269 98° East 502 578 29,000  Level Cleveland Center
Wed 08:52:09 PM 41.5714 -81.6433 99° East 502 578 29,000  Level Cleveland Center
Wed 08:53:09 PM 41.5522 -81.4628 98° East 502 578 29,000  Level Cleveland Center
Wed 08:54:09 PM 41.5325 -81.2989 99° East 502 578 29,000  Level Cleveland Center
Wed 08:55:09 PM 41.5106 -81.1183 99° East 502 578 29,000  Level Cleveland Center
Wed 08:56:09 PM 41.4967 -80.9325 96° East 502 578 29,000  Level Cleveland Center
Wed 08:57:09 PM 41.4783 -80.7494 98° East 502 578 29,000  Level Cleveland Center
Wed 08:58:09 PM 41.4639 -80.5664 96° East 497 572 29,000  Level Cleveland Center
Wed 08:59:09 PM 41.4450 -80.3669 97° East 504 580 29,000  Level Cleveland Center
Wed 09:00:09 PM 41.4300 -80.2008 97° East 499 574 29,000  Level Cleveland Center
Wed 09:01:11 PM 41.4125 -80.0156 97° East 504 580 29,000  Level Cleveland Center
Wed 09:02:09 PM 41.3947 -79.8386 98° East 499 574 29,000  Level Cleveland Center
Wed 09:03:09 PM 41.3767 -79.6589 98° East 499 574 29,000  Level Cleveland Center
Wed 09:04:09 PM 41.3564 -79.4739 98° East 499 574 29,000  Level Cleveland Center
Wed 09:05:09 PM 41.3378 -79.2944 98° East 499 574 29,000  Level Cleveland Center
Wed 09:06:09 PM 41.3211 -79.1122 97° East 499 574 29,000  Level Cleveland Center
Wed 09:07:09 PM 41.2997 -78.9303 99° East 499 574 29,000  Level Cleveland Center
Wed 09:08:09 PM 41.2825 -78.7483 97° East 499 574 29,000  Level Cleveland Center
Wed 09:09:09 PM 41.2606 -78.5639 99° East 499 574 29,000  Level Cleveland Center
Wed 09:11:05 PM 41.2206 -78.1944 98° East 506 582 29,000  Level New York Center
Wed 09:12:05 PM 41.1983 -78.0125 99° East 506 582 29,000  Level New York Center
Wed 09:13:04 PM 41.1761 -77.8308 99° East 501 577 29,000  Level New York Center
Wed 09:14:04 PM 41.1469 -77.6514 102° East 496 571 29,000  Level New York Center
Wed 09:15:04 PM 41.1194 -77.4750 102° East 491 565 29,000  Level New York Center
Wed 09:16:05 PM 41.0931 -77.3156 102° East 496 571 29,000  Level New York Center
Wed 09:17:05 PM 41.0636 -77.1283 102° East 496 571 29,000 -151 Level New York Center
Wed 09:18:04 PM 41.0356 -76.9522 102° East 496 571 28,700 -1,462 Descending New York Center
Wed 09:19:04 PM 41.0050 -76.7733 103° East 496 571 26,100 -2,550 Descending New York Center
Wed 09:20:04 PM 40.9781 -76.6033 102° East 491 565 23,600 -2,430 Descending New York Center
Wed 09:21:05 PM 40.9506 -76.4417 103° East 468 539 21,200 -2,380 Descending New York Center
Wed 09:22:05 PM 40.9267 -76.2886 102° East 446 513 18,800 -2,231 Descending New York Center
Wed 09:23:06 PM 40.8919 -76.1319 106° East 412 474 16,700 -1,686 Descending New York Center
Wed 09:24:06 PM 40.8586 -75.9922 107° East 404 465 15,400 -1,361 Descending New York Center
Wed 09:25:05 PM 40.8253 -75.8525 107° East 394 453 14,000 -1,220 Descending New York Center
Wed 09:26:04 PM 40.7969 -75.7325 107° East 389 448 13,000 -500 Descending New York Center
Wed 09:27:05 PM 40.7628 -75.6014 109° East 382 440 13,000  Level New York Center
Wed 09:28:05 PM 40.7272 -75.4536 108° East 382 440 13,000  Level New York Center
Wed 09:29:04 PM 40.7008 -75.3286 106° East 382 440 13,000  Level New York Center
Wed 09:30:05 PM 40.6744 -75.1956 105° East 382 440 13,000 -1,082 Level New York Center
Wed 09:31:06 PM 40.6122 -75.0767 125° Southeast 357 411 10,800 -1,513 Descending New York Center
Wed 09:32:04 PM 40.5578 -74.9694 124° Southeast 364 419 10,000 -444 Descending New York Center
Wed 09:32:54 PM 40.5333 -74.8667 107° East 351 404 10,000  Level New York TRACON
Wed 09:34:00 PM 40.4833 -74.7333 116° Southeast 357 411 10,000 -190 Level New York TRACON
Wed 09:35:00 PM 40.4500 -74.6167 111° Southeast 301 346 9,600 -526 Descending New York TRACON
Wed 09:35:54 PM 40.4333 -74.5333 105° East 294 338 9,000 -500 Descending New York TRACON
Wed 09:37:00 PM 40.4667 -74.4167 69° East 298 343 8,600 -750 Descending New York TRACON
Wed 09:37:54 PM 40.4833 -74.3333 75° East 289 333 7,500 -800 Descending New York TRACON
Wed 09:39:00 PM 40.5167 -74.2167 69° East 287 330 7,000 -700 Descending New York TRACON
Wed 09:39:54 PM 40.5500 -74.1333 62° Northeast 286 329 6,100 -1,316 Descending New York TRACON
Wed 09:40:54 PM 40.6000 -74.0667 45° Northeast 274 315 4,500 -1,050 Descending New York TRACON
Wed 09:41:54 PM 40.6667 -74.0333 21° North 269 310 4,000 -238 Descending New York TRACON
Wed 09:43:00 PM 40.7500 -74.0167 North 267 307 4,000  Level New York TRACON
Wed 09:44:00 PM 40.8167 -73.9833 21° North 270 311 4,000 -263 Level New York TRACON
Wed 09:44:54 PM 40.8667 -73.9333 37° Northeast 267 307 3,500 -500 Descending New York TRACON
Wed 09:46:00 PM 40.9167 -73.8667 45° Northeast 220 253 3,000 -571 Descending New York TRACON
Wed 09:47:00 PM 40.9333 -73.8167 66° East 177 204 2,300 -526 Descending New York TRACON
Wed 09:47:54 PM 40.9000 -73.8000 159° South 161 185 2,000 -450 Descending New York TRACON
Wed 09:49:00 PM 40.8500 -73.8167 194° South 145 167 1,400 -545 Descending New York TRACON

Login

Don't have an account? Register now (free) for customized features, flight alerts, and more!